HEAZ weather

Almaza Air Force Base
Cairo, Cairo Governorate, Egypt

Public forecast

Using degrees Celsius for public forecast. Weather courtesy of forecast.io.

METAR (pilot weather report)

Closest report is Cairo International Airport, 3.0 nm (5.5 km) NE. Retrieved 2019/04/18 14:30 UTC (7 minutes ago):

HECA 181430Z 32008KT 9999 SCT025 23/04 Q1016 NOSIG

TAF (pilot weather forecast)

Closest forecast is Cairo International Airport, 3.0 nm (5.5 km) NE. Retrieved 2019/04/18 12:57 UTC (2 hours ago):

TAF HECA 181100Z 1812/1918 28008KT 9999 SCT025 BECMG 1900/1902 03004KT TEMPO 1900/1906 4000 HZ NSC TEMPO 1904/1906 3000 BR